Time;durP1;ratioP1;P1;durP2;ratioP2;P2;SDS_P1;SDS_P2;PMS_P1;PMS_P2;Temp;Humidity;BMP_temperature;BMP_pressure;BME280_temperature;BME280_humidity;BME280_pressure;Samples;Min_cycle;Max_cycle;Signal;HPM_P1;HPM_P2
2022/06/21 00:00:21;;;;;;;3.17;1.50;;;18.30;88.80;;;;;;7373172;19;20368;-42
2022/06/21 00:02:55;;;;;;;1.30;1.20;;;18.40;88.70;;;;;;7375232;19;20439;-42
2022/06/21 00:05:29;;;;;;;3.10;2.80;;;18.40;89.50;;;;;;7377347;19;21167;-42
2022/06/21 00:08:01;;;;;;;1.80;1.30;;;18.40;90.10;;;;;;7377742;19;21468;-41
2022/06/21 00:10:34;;;;;;;2.33;1.53;;;18.20;91.00;;;;;;7375480;19;20448;-41
2022/06/21 00:13:04;;;;;;;2.67;1.40;;;18.10;91.70;;;;;;7381523;19;20408;-42
2022/06/21 00:15:34;;;;;;;1.60;1.50;;;18.10;91.90;;;;;;7374641;19;20372;-42
2022/06/21 00:18:03;;;;;;;1.37;1.20;;;18.10;92.40;;;;;;7373843;19;20758;-41
2022/06/21 00:20:33;;;;;;;2.27;1.20;;;18.20;92.60;;;;;;7375695;19;22094;-41
2022/06/21 00:23:06;;;;;;;4.13;1.43;;;18.20;92.50;;;;;;7378520;19;20383;-41
2022/06/21 00:25:35;;;;;;;1.63;1.53;;;18.20;92.30;;;;;;7376271;19;21839;-41
2022/06/21 00:28:05;;;;;;;3.27;1.37;;;18.00;93.30;;;;;;7376438;19;20372;-41
2022/06/21 00:30:35;;;;;;;1.83;1.17;;;17.60;94.90;;;;;;7372579;19;20368;-41
2022/06/21 00:33:04;;;;;;;1.53;1.40;;;17.60;96.00;;;;;;7378799;19;20363;-41
2022/06/21 00:35:36;;;;;;;1.60;1.50;;;17.60;96.40;;;;;;7377688;19;20376;-41
2022/06/21 00:38:11;;;;;;;1.90;1.17;;;17.50;97.40;;;;;;7376976;19;20368;-42
2022/06/21 00:40:40;;;;;;;1.93;1.83;;;17.50;96.80;;;;;;7372296;19;20411;-41
2022/06/21 00:43:15;;;;;;;2.10;1.30;;;17.50;97.60;;;;;;7374277;19;20376;-41
2022/06/21 00:45:47;;;;;;;2.37;2.07;;;17.50;97.90;;;;;;7372962;19;20399;-41
2022/06/21 00:48:30;;;;;;;3.43;1.20;;;17.60;97.50;;;;;;7375295;19;20694;-41
2022/06/21 00:51:08;;;;;;;1.50;1.40;;;17.60;97.70;;;;;;7374730;19;20408;-41
2022/06/21 00:53:44;;;;;;;1.63;1.40;;;17.10;98.80;;;;;;7379587;19;20408;-41
2022/06/21 00:56:17;;;;;;;5.53;1.40;;;16.60;99.90;;;;;;7378188;19;21254;-43
2022/06/21 00:58:49;;;;;;;2.80;1.50;;;16.70;99.90;;;;;;7364272;19;20368;-41
2022/06/21 01:01:24;;;;;;;1.70;1.60;;;17.10;99.90;;;;;;7371652;19;20924;-41
2022/06/21 01:03:57;;;;;;;1.30;1.20;;;17.50;98.80;;;;;;7372786;19;20380;-41
2022/06/21 01:06:30;;;;;;;2.40;1.70;;;17.70;97.80;;;;;;7378728;19;20379;-41
2022/06/21 01:09:05;;;;;;;1.40;1.30;;;17.60;98.00;;;;;;7365872;19;20388;-42
2022/06/21 01:11:40;;;;;;;1.60;1.20;;;17.30;99.20;;;;;;7372100;19;20415;-41
2022/06/21 01:14:11;;;;;;;2.13;1.40;;;17.30;99.30;;;;;;7371571;19;20386;-42
2022/06/21 01:16:42;;;;;;;6.80;1.50;;;17.20;99.90;;;;;;7373550;19;20921;-41
2022/06/21 01:19:25;;;;;;;2.27;1.47;;;17.00;99.90;;;;;;7373600;19;20372;-41
2022/06/21 01:22:00;;;;;;;4.63;1.57;;;16.90;99.90;;;;;;7370867;19;20412;-41
2022/06/21 01:24:43;;;;;;;1.57;1.47;;;17.20;99.90;;;;;;7371754;19;20398;-41
2022/06/21 01:27:15;;;;;;;2.50;1.80;;;17.50;99.90;;;;;;7369504;19;20384;-41
2022/06/21 01:29:47;;;;;;;1.20;1.10;;;17.70;98.40;;;;;;7370104;19;20372;-41
2022/06/21 01:32:17;;;;;;;3.03;1.73;;;17.60;99.10;;;;;;7368603;19;20922;-41
2022/06/21 01:34:46;;;;;;;1.60;1.50;;;17.40;99.40;;;;;;7376982;19;20445;-41
2022/06/21 01:37:19;;;;;;;1.90;1.70;;;17.40;99.70;;;;;;7374658;19;20387;-42
2022/06/21 01:39:54;;;;;;;1.67;1.57;;;17.20;99.90;;;;;;7370324;19;20408;-42
2022/06/21 01:42:32;;;;;;;1.60;1.23;;;16.90;99.90;;;;;;7369823;19;20379;-41
2022/06/21 01:45:05;;;;;;;2.27;1.87;;;17.10;99.90;;;;;;7355769;19;20363;-41
2022/06/21 01:47:42;;;;;;;1.50;1.40;;;16.90;99.90;;;;;;7351707;19;20848;-41
2022/06/21 01:50:13;;;;;;;1.90;1.43;;;16.80;99.90;;;;;;7367188;19;20398;-41
2022/06/21 01:52:46;;;;;;;2.30;1.33;;;16.70;99.90;;;;;;7372449;19;20376;-41
2022/06/21 01:55:23;;;;;;;1.67;1.17;;;16.70;99.90;;;;;;7366850;19;20360;-41
2022/06/21 01:57:58;;;;;;;7.93;1.80;;;16.70;99.90;;;;;;7373158;19;20363;-41
2022/06/21 02:00:33;;;;;;;4.80;2.10;;;16.70;99.90;;;;;;7362921;19;20376;-41
2022/06/21 02:03:11;;;;;;;2.03;1.87;;;16.40;99.90;;;;;;7365191;19;20934;-41
2022/06/21 02:05:46;;;;;;;2.30;1.60;;;16.50;99.90;;;;;;7365216;19;20387;-41
2022/06/21 02:08:18;;;;;;;1.93;1.50;;;16.50;99.90;;;;;;7367324;19;21416;-41
2022/06/21 02:10:50;;;;;;;2.33;1.53;;;16.60;99.90;;;;;;7373095;19;20364;-42
2022/06/21 02:13:28;;;;;;;2.20;1.57;;;16.70;99.90;;;;;;7372393;19;20379;-41
2022/06/21 02:16:02;;;;;;;2.63;1.67;;;17.00;99.90;;;;;;7367675;19;20368;-41
2022/06/21 02:18:34;;;;;;;2.37;1.43;;;16.90;99.90;;;;;;7367647;19;20373;-41
2022/06/21 02:21:09;;;;;;;2.33;1.80;;;16.90;99.90;;;;;;7373209;19;20387;-41
2022/06/21 02:23:40;;;;;;;2.23;1.63;;;17.00;99.70;;;;;;7374238;19;20431;-41
2022/06/21 02:26:13;;;;;;;2.60;1.60;;;16.70;99.90;;;;;;7365686;19;20396;-41
2022/06/21 02:28:46;;;;;;;2.60;1.63;;;16.80;99.20;;;;;;7367640;19;20361;-41
2022/06/21 02:31:16;;;;;;;1.57;1.30;;;16.70;99.20;;;;;;7369492;19;20372;-41
2022/06/21 02:33:48;;;;;;;2.10;1.40;;;16.70;99.80;;;;;;7368483;19;20509;-42
2022/06/21 02:36:23;;;;;;;1.30;1.20;;;16.70;99.00;;;;;;7368778;19;20388;-41
2022/06/21 02:38:56;;;;;;;1.30;1.20;;;16.70;97.80;;;;;;7373528;19;20363;-41
2022/06/21 02:41:33;;;;;;;1.43;1.33;;;16.70;98.00;;;;;;7366479;19;20749;-42
2022/06/21 02:44:13;;;;;;;2.03;1.37;;;16.60;97.00;;;;;;7373350;19;20375;-41
2022/06/21 02:46:49;;;;;;;1.60;1.40;;;16.40;98.10;;;;;;7371299;19;20817;-41
2022/06/21 02:49:27;;;;;;;2.20;1.53;;;16.20;98.40;;;;;;7370217;19;20376;-41
2022/06/21 02:52:02;;;;;;;4.20;2.40;;;16.20;97.80;;;;;;7369919;19;20387;-41
2022/06/21 02:54:39;;;;;;;2.40;1.23;;;16.20;97.50;;;;;;7373160;19;20403;-42
2022/06/21 02:57:12;;;;;;;1.60;1.40;;;16.10;97.40;;;;;;7372119;19;20401;-42
2022/06/21 02:59:45;;;;;;;2.27;1.40;;;15.90;99.10;;;;;;7368546;19;20384;-38
2022/06/21 03:02:17;;;;;;;1.60;1.30;;;15.70;99.70;;;;;;7349442;19;20768;-38
2022/06/21 03:04:50;;;;;;;2.53;1.23;;;15.60;99.90;;;;;;7369586;19;20379;-38
2022/06/21 03:07:23;;;;;;;2.80;1.37;;;15.50;99.90;;;;;;7364800;19;20460;-38
2022/06/21 03:09:54;;;;;;;1.93;1.80;;;15.70;99.90;;;;;;7372150;19;20922;-37
2022/06/21 03:12:27;;;;;;;1.53;1.43;;;15.80;99.90;;;;;;7372993;19;21026;-37
2022/06/21 03:15:03;;;;;;;2.30;1.60;;;15.60;99.90;;;;;;7370603;19;20440;-38
2022/06/21 03:17:39;;;;;;;1.80;1.70;;;15.60;99.90;;;;;;7370627;19;20948;-37
2022/06/21 03:20:16;;;;;;;3.00;1.50;;;15.40;99.90;;;;;;7371970;19;20408;-37
2022/06/21 03:22:47;;;;;;;2.53;1.67;;;15.50;99.90;;;;;;7367824;19;20400;-38
2022/06/21 03:25:24;;;;;;;5.23;1.80;;;15.70;99.90;;;;;;7364998;19;20527;-38
2022/06/21 03:27:56;;;;;;;2.07;1.40;;;15.80;99.90;;;;;;7371221;19;20400;-38
2022/06/21 03:30:32;;;;;;;1.50;1.40;;;15.70;99.90;;;;;;7371474;19;20376;-41
2022/06/21 03:33:02;;;;;;;1.70;1.50;;;15.70;99.90;;;;;;7366708;19;21151;-41
2022/06/21 03:35:36;;;;;;;1.57;1.30;;;15.60;99.90;;;;;;7371853;19;20404;-41
2022/06/21 03:38:06;;;;;;;1.97;1.70;;;15.40;99.90;;;;;;7373979;19;20376;-41
2022/06/21 03:43:23;;;;;;;2.20;1.73;;;15.50;99.90;;;;;;7365534;19;20391;-41
2022/06/21 03:45:58;;;;;;;4.20;1.53;;;15.40;99.90;;;;;;7361940;19;20527;-41
2022/06/21 03:48:33;;;;;;;1.93;1.57;;;15.30;99.90;;;;;;7373358;19;20368;-40
2022/06/21 03:51:08;;;;;;;2.70;1.40;;;15.60;99.80;;;;;;7369324;19;20455;-41
2022/06/21 03:53:46;;;;;;;1.77;1.67;;;15.40;99.90;;;;;;7365882;19;20390;-40
2022/06/21 03:56:21;;;;;;;2.70;1.50;;;15.40;99.90;;;;;;7370560;19;20747;-41
2022/06/21 03:58:58;;;;;;;2.00;1.80;;;15.60;98.30;;;;;;7379927;19;20419;-41
2022/06/21 04:01:34;;;;;;;3.23;2.07;;;15.80;97.20;;;;;;7376502;19;20769;-38
2022/06/21 04:04:13;;;;;;;1.57;1.47;;;16.10;95.30;;;;;;7369538;19;20452;-37
2022/06/21 04:06:52;;;;;;;3.63;1.47;;;15.80;95.30;;;;;;7368584;19;20411;-37
2022/06/21 04:09:29;;;;;;;2.03;1.83;;;15.90;95.60;;;;;;7376399;19;20456;-38
2022/06/21 04:12:09;;;;;;;3.43;1.73;;;16.00;95.00;;;;;;7374477;19;20364;-38
2022/06/21 04:14:42;;;;;;;3.03;1.50;;;16.10;93.80;;;;;;7371075;19;20368;-38
2022/06/21 04:17:20;;;;;;;1.60;1.40;;;16.20;92.50;;;;;;7370886;19;20722;-38
2022/06/21 04:19:54;;;;;;;2.07;1.30;;;16.30;92.70;;;;;;7375368;19;21103;-38
2022/06/21 04:22:33;;;;;;;2.20;1.67;;;16.50;91.90;;;;;;7373560;19;20371;-38
2022/06/21 04:25:10;;;;;;;2.50;1.47;;;16.80;90.30;;;;;;7353192;19;20399;-38
2022/06/21 04:27:46;;;;;;;4.80;1.77;;;16.70;90.70;;;;;;7373182;19;20364;-38
2022/06/21 04:30:28;;;;;;;2.23;2.03;;;16.90;89.10;;;;;;7365467;19;20578;-37
2022/06/21 04:33:06;;;;;;;2.50;1.77;;;17.00;89.90;;;;;;7374511;19;20967;-38
2022/06/21 04:35:42;;;;;;;4.83;3.80;;;17.10;88.50;;;;;;7376438;19;20360;-38
2022/06/21 04:38:18;;;;;;;2.60;1.70;;;17.40;88.00;;;;;;7375733;19;20372;-38
2022/06/21 04:40:54;;;;;;;2.57;1.90;;;17.60;84.90;;;;;;7377666;19;20389;-38
2022/06/21 04:43:29;;;;;;;1.63;1.43;;;17.90;79.50;;;;;;7373880;19;20759;-38
2022/06/21 04:46:03;;;;;;;3.03;2.10;;;18.00;77.70;;;;;;7370384;19;21024;-38
2022/06/21 04:48:43;;;;;;;2.20;1.50;;;18.00;78.30;;;;;;7366152;19;20376;-39
2022/06/21 04:51:18;;;;;;;2.87;1.87;;;18.10;74.90;;;;;;7376171;19;20375;-39
2022/06/21 04:53:54;;;;;;;3.80;1.63;;;18.20;74.50;;;;;;7369964;19;20378;-39
2022/06/21 04:56:34;;;;;;;2.90;2.00;;;18.00;75.10;;;;;;7371990;19;20372;-39
2022/06/21 04:59:05;;;;;;;4.00;3.27;;;17.90;74.60;;;;;;7379327;19;20905;-38
2022/06/21 05:01:38;;;;;;;3.13;2.00;;;17.90;74.70;;;;;;7370451;19;20934;-42
2022/06/21 05:04:15;;;;;;;2.73;1.87;;;18.10;73.80;;;;;;7371334;19;20471;-42
2022/06/21 05:06:45;;;;;;;2.93;1.90;;;18.00;72.40;;;;;;7372743;19;20376;-41
2022/06/21 05:09:16;;;;;;;2.53;2.07;;;17.90;73.20;;;;;;7370836;19;20380;-41
2022/06/21 05:11:46;;;;;;;6.33;2.70;;;17.90;71.50;;;;;;7370478;19;20895;-42
2022/06/21 05:14:26;;;;;;;3.03;2.60;;;17.90;73.30;;;;;;7376747;19;20415;-42
2022/06/21 05:16:56;;;;;;;11.50;7.70;;;18.10;72.20;;;;;;7368522;19;20375;-41
2022/06/21 05:19:33;;;;;;;3.03;2.00;;;18.30;75.60;;;;;;7379745;19;20914;-41
2022/06/21 05:22:08;;;;;;;1.93;1.77;;;18.40;72.10;;;;;;7374842;19;20376;-42
2022/06/21 05:24:38;;;;;;;3.57;2.30;;;18.40;70.50;;;;;;7373052;19;20380;-42
2022/06/21 05:27:12;;;;;;;24.67;13.67;;;18.50;69.60;;;;;;7378853;19;20975;-42
2022/06/21 05:29:50;;;;;;;8.20;5.83;;;18.80;71.20;;;;;;7378232;19;20376;-42
2022/06/21 05:32:22;;;;;;;10.93;4.13;;;19.20;68.20;;;;;;7375391;19;20388;-42
2022/06/21 05:34:58;;;;;;;3.30;2.53;;;19.20;76.20;;;;;;7373142;19;20378;-42
2022/06/21 05:37:32;;;;;;;3.53;1.60;;;19.60;67.00;;;;;;7363288;19;20387;-41
2022/06/21 05:40:16;;;;;;;3.40;1.90;;;19.30;66.60;;;;;;7371187;19;22548;-39
2022/06/21 05:42:47;;;;;;;2.10;1.90;;;19.50;66.90;;;;;;7376904;19;20391;-39
2022/06/21 05:45:18;;;;;;;7.37;2.40;;;19.70;64.80;;;;;;7374199;19;20372;-39
2022/06/21 05:47:55;;;;;;;4.43;1.80;;;19.70;64.30;;;;;;7370508;19;20431;-39
2022/06/21 05:50:32;;;;;;;5.90;2.10;;;19.60;65.60;;;;;;7374839;19;20412;-39
2022/06/21 05:53:12;;;;;;;3.47;1.57;;;19.90;67.00;;;;;;7375166;19;20383;-39
2022/06/21 05:55:45;;;;;;;2.93;1.87;;;20.10;60.00;;;;;;7373861;19;20423;-39
2022/06/21 05:58:22;;;;;;;2.33;1.67;;;19.50;60.60;;;;;;7376792;19;20782;-39
2022/06/21 06:00:59;;;;;;;3.37;1.60;;;19.60;62.40;;;;;;7373775;19;21573;-39
2022/06/21 06:03:34;;;;;;;3.63;2.63;;;19.90;62.60;;;;;;7373207;19;20384;-39
2022/06/21 06:06:08;;;;;;;2.00;1.50;;;20.00;61.20;;;;;;7377200;19;20970;-39
2022/06/21 06:08:41;;;;;;;2.90;1.47;;;19.60;58.50;;;;;;7375393;19;20376;-38
2022/06/21 06:11:16;;;;;;;3.87;1.73;;;19.00;60.00;;;;;;7374511;19;20914;-38
2022/06/21 06:13:47;;;;;;;2.60;1.73;;;18.90;60.90;;;;;;7377051;19;20477;-39
2022/06/21 06:16:37;;;;;;;1.70;1.60;;;19.20;65.30;;;;;;7374937;19;20380;-38
2022/06/21 06:19:16;;;;;;;2.47;1.77;;;19.30;60.70;;;;;;7375634;19;20384;-39
2022/06/21 06:21:53;;;;;;;4.50;2.17;;;19.60;61.80;;;;;;7376913;19;20364;-39
2022/06/21 06:24:28;;;;;;;3.90;2.03;;;19.80;59.20;;;;;;7376445;19;20388;-39
2022/06/21 06:27:02;;;;;;;2.87;1.70;;;19.90;59.40;;;;;;7378972;19;20376;-39
2022/06/21 06:29:36;;;;;;;3.20;1.63;;;20.20;60.00;;;;;;7377297;19;20927;-39
2022/06/21 06:32:16;;;;;;;2.50;1.63;;;19.90;59.00;;;;;;7376827;19;20372;-38
2022/06/21 06:34:53;;;;;;;2.40;1.57;;;19.80;59.30;;;;;;7373606;19;20517;-39
2022/06/21 06:37:30;;;;;;;2.83;1.60;;;20.20;58.60;;;;;;7377476;19;20774;-39
2022/06/21 06:40:00;;;;;;;2.70;1.80;;;20.20;58.90;;;;;;7378911;19;20427;-39
2022/06/21 06:42:33;;;;;;;4.40;2.07;;;20.40;58.90;;;;;;7376802;19;20384;-39
2022/06/21 06:45:15;;;;;;;2.20;1.60;;;20.70;58.30;;;;;;7375444;19;20368;-38
2022/06/21 06:47:50;;;;;;;6.13;1.80;;;20.30;58.70;;;;;;7371721;19;20430;-39
2022/06/21 06:50:25;;;;;;;2.67;1.80;;;20.20;60.80;;;;;;7373928;19;20390;-39
2022/06/21 06:53:03;;;;;;;2.73;1.80;;;20.00;59.70;;;;;;7375025;19;20406;-38
2022/06/21 06:55:39;;;;;;;2.20;1.60;;;19.90;59.70;;;;;;7378083;19;20415;-38
2022/06/21 06:58:20;;;;;;;3.43;1.50;;;19.60;60.40;;;;;;7377277;19;20414;-38
2022/06/21 07:00:54;;;;;;;2.20;1.43;;;19.90;60.00;;;;;;7371000;19;20734;-38
2022/06/21 07:03:28;;;;;;;3.70;1.67;;;20.10;60.50;;;;;;7374145;19;20390;-38
2022/06/21 07:06:02;;;;;;;2.00;1.50;;;20.50;59.10;;;;;;7376475;19;20383;-38
2022/06/21 07:08:41;;;;;;;2.27;1.60;;;20.60;58.00;;;;;;7376428;19;20379;-38
2022/06/21 07:11:17;;;;;;;3.23;1.57;;;20.90;58.50;;;;;;7374944;19;20737;-41
2022/06/21 07:13:47;;;;;;;6.30;2.00;;;21.40;56.80;;;;;;7374856;19;20376;-43
2022/06/21 07:16:22;;;;;;;3.30;1.70;;;21.40;56.50;;;;;;7375794;19;20972;-41
2022/06/21 07:18:54;;;;;;;3.83;1.73;;;21.50;56.60;;;;;;7376888;19;20390;-42
2022/06/21 07:21:26;;;;;;;3.73;2.27;;;21.30;56.90;;;;;;7374578;19;20708;-41
2022/06/21 07:23:59;;;;;;;1.70;1.60;;;21.30;55.40;;;;;;7374167;19;20391;-42
2022/06/21 07:26:33;;;;;;;3.00;2.00;;;21.50;57.80;;;;;;7374313;19;20419;-42
2022/06/21 07:29:07;;;;;;;4.30;2.03;;;21.60;55.50;;;;;;7373015;19;21064;-41
2022/06/21 07:31:40;;;;;;;2.50;1.43;;;21.30;55.80;;;;;;7380929;19;20412;-41
2022/06/21 07:34:15;;;;;;;3.17;1.67;;;21.50;56.90;;;;;;7378686;19;20376;-42
2022/06/21 07:36:50;;;;;;;4.27;1.67;;;22.10;55.50;;;;;;7378461;19;20387;-42
2022/06/21 07:39:30;;;;;;;2.23;1.77;;;22.20;56.00;;;;;;7377824;19;20367;-42
2022/06/21 07:42:07;;;;;;;2.80;1.67;;;22.60;53.40;;;;;;7381468;19;20376;-42
2022/06/21 07:44:42;;;;;;;6.43;1.60;;;22.60;53.10;;;;;;7377410;19;20462;-41
2022/06/21 07:47:16;;;;;;;3.83;1.70;;;22.40;53.40;;;;;;7378522;19;20532;-41
2022/06/21 07:49:51;;;;;;;1.87;1.50;;;22.40;53.40;;;;;;7381911;19;20372;-42
2022/06/21 07:52:24;;;;;;;2.80;1.80;;;22.50;53.60;;;;;;7383201;19;20375;-42
2022/06/21 07:55:00;;;;;;;4.50;1.90;;;22.50;52.80;;;;;;7382931;19;20782;-42
2022/06/21 07:57:35;;;;;;;4.17;2.03;;;22.30;53.00;;;;;;7377290;19;20387;-41
2022/06/21 08:00:09;;;;;;;3.10;1.93;;;21.90;54.60;;;;;;7381403;19;20661;-42
2022/06/21 08:08:18;;;;;;;4.10;2.20;;;22.30;54.00;;;;;;7380976;19;20383;-42
2022/06/21 08:10:55;;;;;;;4.77;2.10;;;22.60;53.40;;;;;;7378469;19;20463;-42
2022/06/21 08:13:24;;;;;;;5.43;2.20;;;22.30;52.70;;;;;;7379200;19;20405;-43
2022/06/21 08:16:03;;;;;;;2.53;2.17;;;22.60;53.60;;;;;;7372602;19;20408;-43
2022/06/21 08:18:41;;;;;;;4.87;1.90;;;22.50;52.20;;;;;;7375208;19;20396;-42
2022/06/21 08:21:16;;;;;;;2.83;1.80;;;22.40;53.80;;;;;;7382658;19;20405;-42
2022/06/21 08:23:52;;;;;;;7.00;2.17;;;21.80;53.20;;;;;;7380551;19;20395;-41
2022/06/21 08:26:31;;;;;;;3.30;2.00;;;21.40;55.10;;;;;;7377602;19;22047;-41
2022/06/21 08:29:06;;;;;;;2.80;2.10;;;21.50;55.10;;;;;;7379689;19;20388;-42
2022/06/21 08:31:38;;;;;;;5.93;3.87;;;21.60;55.20;;;;;;7382600;19;20383;-42
2022/06/21 08:34:13;;;;;;;4.17;2.00;;;22.00;54.20;;;;;;7381859;19;21056;-42
2022/06/21 08:36:47;;;;;;;4.57;2.03;;;22.10;54.40;;;;;;7373976;19;20767;-42
2022/06/21 08:39:24;;;;;;;2.60;2.00;;;21.80;55.10;;;;;;7379442;19;20383;-42
2022/06/21 08:42:20;;;;;;;3.40;2.33;;;22.20;54.80;;;;;;7377668;19;20417;-42
2022/06/21 08:48:33;;;;;;;4.40;1.83;;;22.80;53.40;;;;;;7377806;19;20394;-42
2022/06/21 08:51:30;;;;;;;3.10;1.70;;;23.20;52.90;;;;;;7377733;19;21039;-43
2022/06/21 08:54:11;;;;;;;8.93;4.90;;;23.20;52.50;;;;;;7374102;19;20471;-42
2022/06/21 08:56:44;;;;;;;3.50;2.07;;;23.20;53.30;;;;;;7379532;19;20403;-42
2022/06/21 08:59:25;;;;;;;3.27;1.90;;;23.10;52.90;;;;;;7374304;19;20412;-42
2022/06/21 09:02:03;;;;;;;3.63;1.80;;;23.20;52.70;;;;;;7373897;19;20391;-43
2022/06/21 09:04:47;;;;;;;4.63;1.90;;;23.30;53.50;;;;;;7378184;19;20376;-42
2022/06/21 09:07:39;;;;;;;3.10;2.27;;;22.80;54.90;;;;;;7376261;19;20828;-42
2022/06/21 09:10:23;;;;;;;4.40;2.43;;;21.80;56.70;;;;;;7377844;19;20748;-41
2022/06/21 09:13:03;;;;;;;4.10;2.33;;;21.40;57.40;;;;;;7373205;19;20376;-43
2022/06/21 09:15:45;;;;;;;2.77;2.30;;;21.80;58.20;;;;;;7377255;19;20416;-43
2022/06/21 09:18:28;;;;;;;3.80;2.37;;;22.10;57.90;;;;;;7373829;19;20391;-43
2022/06/21 09:21:08;;;;;;;5.63;2.20;;;22.40;56.20;;;;;;7377708;19;20373;-39
2022/06/21 09:24:02;;;;;;;7.20;2.13;;;22.60;55.40;;;;;;7376005;19;20391;-39
2022/06/21 09:26:39;;;;;;;2.83;1.77;;;22.50;55.20;;;;;;7374851;19;20372;-39
2022/06/21 09:29:33;;;;;;;2.07;1.87;;;22.90;55.10;;;;;;7378817;19;20380;-39
2022/06/21 09:32:17;;;;;;;2.33;1.90;;;23.20;54.40;;;;;;7376371;19;20389;-40
2022/06/21 09:35:05;;;;;;;3.50;2.17;;;23.70;53.30;;;;;;7376602;19;21522;-39
2022/06/21 09:37:48;;;;;;;4.97;2.23;;;24.20;53.20;;;;;;7376810;19;20379;-40
2022/06/21 09:40:27;;;;;;;3.20;2.37;;;24.30;50.60;;;;;;7377694;19;20380;-39
2022/06/21 09:43:09;;;;;;;4.40;2.10;;;24.30;52.00;;;;;;7376261;19;20384;-39
2022/06/21 09:45:49;;;;;;;2.97;2.20;;;24.80;50.70;;;;;;7373889;19;20383;-39
2022/06/21 09:48:31;;;;;;;3.43;2.60;;;25.20;48.90;;;;;;7377252;19;20372;-39
2022/06/21 09:51:09;;;;;;;3.53;2.53;;;24.60;50.50;;;;;;7375365;19;20372;-42
2022/06/21 09:53:50;;;;;;;3.33;2.10;;;24.50;50.40;;;;;;7376012;19;20914;-44
2022/06/21 09:56:29;;;;;;;5.83;2.20;;;24.80;50.80;;;;;;7373313;19;20379;-46
2022/06/21 09:59:08;;;;;;;4.10;2.00;;;25.10;50.60;;;;;;7378823;19;20383;-43
2022/06/21 10:01:47;;;;;;;3.17;1.97;;;25.20;50.10;;;;;;7373897;19;20383;-42
2022/06/21 10:04:31;;;;;;;4.07;2.40;;;24.90;50.90;;;;;;7375780;19;20378;-42
2022/06/21 10:07:15;;;;;;;5.43;2.17;;;25.50;50.00;;;;;;7377245;19;20589;-45
2022/06/21 10:09:57;;;;;;;3.60;2.43;;;26.00;48.70;;;;;;7375958;19;20769;-42
2022/06/21 10:12:42;;;;;;;2.60;2.03;;;26.20;48.50;;;;;;7376607;19;20432;-42
2022/06/21 10:15:32;;;;;;;2.53;1.80;;;26.40;47.10;;;;;;7368882;19;20458;-42
2022/06/21 10:18:28;;;;;;;2.60;1.97;;;26.60;47.30;;;;;;7376112;19;20373;-43
2022/06/21 10:21:26;;;;;;;2.10;1.90;;;27.30;47.10;;;;;;7373304;19;20376;-40
2022/06/21 10:24:27;;;;;;;3.33;2.13;;;27.30;45.90;;;;;;7373517;19;20776;-39
2022/06/21 10:27:15;;;;;;;2.80;1.83;;;27.10;47.10;;;;;;7376813;19;20924;-40
2022/06/21 10:30:20;;;;;;;2.70;1.87;;;26.90;47.20;;;;;;7371622;19;20391;-40
2022/06/21 10:33:14;;;;;;;2.30;2.10;;;27.40;46.60;;;;;;7371491;19;20933;-40
2022/06/21 10:36:02;;;;;;;5.47;2.30;;;27.90;45.70;;;;;;7376525;19;20842;-40
2022/06/21 10:39:04;;;;;;;2.60;1.97;;;27.50;46.50;;;;;;7373424;19;20377;-40
2022/06/21 10:42:46;;;;;;;4.23;2.67;;;28.20;45.40;;;;;;7375009;19;20392;-40
2022/06/21 10:44:50;;;;;;;3.90;1.90;;;28.50;45.20;;;;;;7371682;19;20380;-40
2022/06/21 10:47:35;;;;;;;2.93;2.20;;;28.30;45.30;;;;;;7371673;19;20436;-40
2022/06/21 10:50:24;;;;;;;2.40;2.20;;;28.60;45.20;;;;;;7374598;19;20925;-42
2022/06/21 10:53:19;;;;;;;3.67;2.37;;;28.70;44.70;;;;;;7374867;19;20649;-43
2022/06/21 10:58:54;;;;;;;4.03;2.40;;;28.50;45.30;;;;;;7370440;19;20448;-42
2022/06/21 11:01:30;;;;;;;3.30;2.60;;;28.80;44.80;;;;;;7373067;19;20424;-42
2022/06/21 11:04:25;;;;;;;6.30;2.83;;;28.80;44.20;;;;;;7372353;19;20640;-43
2022/06/21 11:07:02;;;;;;;4.13;2.80;;;29.00;44.90;;;;;;7381383;19;20408;-42
2022/06/21 11:09:44;;;;;;;4.90;2.60;;;29.10;45.80;;;;;;7381083;19;20924;-41
2022/06/21 11:15:16;;;;;;;4.47;2.80;;;28.20;46.00;;;;;;7357318;19;20400;-42
2022/06/21 11:18:02;;;;;;;4.20;2.20;;;28.60;46.00;;;;;;7378484;19;20431;-42
2022/06/21 11:20:42;;;;;;;5.00;2.70;;;29.20;45.20;;;;;;7380927;19;20368;-40
2022/06/21 11:23:23;;;;;;;4.10;2.83;;;29.40;45.10;;;;;;7379141;19;20917;-39
2022/06/21 11:25:56;;;;;;;5.07;2.80;;;28.40;46.20;;;;;;7377438;19;20374;-39
2022/06/21 11:28:43;;;;;;;4.60;2.63;;;28.60;46.80;;;;;;7377756;19;20376;-39
2022/06/21 11:31:21;;;;;;;5.30;2.93;;;29.20;45.60;;;;;;7381066;19;20364;-39
2022/06/21 11:34:01;;;;;;;2.77;2.50;;;28.50;46.50;;;;;;7378554;19;20744;-39
2022/06/21 11:36:39;;;;;;;4.00;2.63;;;28.30;48.00;;;;;;7378842;19;20661;-40
2022/06/21 11:39:20;;;;;;;3.33;2.90;;;28.40;47.60;;;;;;7372697;19;20491;-40
2022/06/21 11:42:08;;;;;;;3.80;3.30;;;28.50;47.30;;;;;;7380923;19;20376;-40
2022/06/21 11:44:59;;;;;;;4.10;2.80;;;27.80;48.30;;;;;;7381099;19;20454;-40
2022/06/21 11:47:43;;;;;;;4.00;2.30;;;27.60;50.10;;;;;;7375972;19;20416;-40
2022/06/21 11:50:20;;;;;;;5.83;2.83;;;27.70;49.60;;;;;;7376566;19;20958;-43
2022/06/21 11:53:14;;;;;;;4.10;2.90;;;28.30;48.80;;;;;;7376544;19;20382;-42
2022/06/21 11:55:51;;;;;;;2.80;2.60;;;28.90;48.40;;;;;;7378158;19;20419;-43
2022/06/21 11:58:30;;;;;;;3.30;3.00;;;29.60;46.70;;;;;;7368585;19;20499;-43
2022/06/21 12:01:09;;;;;;;3.77;2.70;;;30.20;45.70;;;;;;7378925;19;20508;-43
2022/06/21 12:03:49;;;;;;;5.10;2.83;;;30.30;45.30;;;;;;7376195;19;20384;-45
2022/06/21 12:06:29;;;;;;;3.70;3.10;;;29.60;46.60;;;;;;7377064;19;20383;-43
2022/06/21 12:09:07;;;;;;;8.87;3.40;;;29.40;47.40;;;;;;7380279;19;20372;-44
2022/06/21 12:11:57;;;;;;;3.77;2.83;;;29.10;47.60;;;;;;7381892;19;20389;-43
2022/06/21 12:14:38;;;;;;;5.93;3.90;;;28.00;50.10;;;;;;7381213;19;20380;-42
2022/06/21 12:17:16;;;;;;;6.03;4.50;;;27.50;51.10;;;;;;7377470;19;20470;-43
2022/06/21 12:19:48;;;;;;;4.37;3.33;;;27.10;51.50;;;;;;7377806;19;20379;-42
2022/06/21 12:22:29;;;;;;;4.60;3.60;;;26.70;53.00;;;;;;7374256;19;20930;-42
2022/06/21 12:24:58;;;;;;;4.30;3.20;;;26.80;53.30;;;;;;7375680;19;21882;-42
2022/06/21 12:27:28;;;;;;;3.73;3.33;;;27.00;53.00;;;;;;7380232;19;20415;-43
2022/06/21 12:30:02;;;;;;;3.73;2.90;;;27.50;52.40;;;;;;7377006;19;20384;-43
2022/06/21 12:32:35;;;;;;;4.07;3.30;;;27.90;51.60;;;;;;7381423;19;20748;-42
2022/06/21 12:35:15;;;;;;;6.37;4.60;;;27.50;52.60;;;;;;7376321;19;21037;-43
2022/06/21 12:37:48;;;;;;;4.93;3.53;;;27.30;53.20;;;;;;7378754;19;20902;-43
2022/06/21 12:40:26;;;;;;;4.63;3.00;;;27.70;52.80;;;;;;7377540;19;20384;-42
2022/06/21 12:43:26;;;;;;;4.93;3.80;;;27.60;52.70;;;;;;7378019;19;20412;-43
2022/06/21 12:46:06;;;;;;;3.80;3.50;;;27.60;52.60;;;;;;7376150;19;20360;-43
2022/06/21 12:49:08;;;;;;;6.13;3.40;;;27.80;52.90;;;;;;7373667;19;20424;-43
2022/06/21 12:51:47;;;;;;;4.93;3.73;;;27.80;53.20;;;;;;7377614;19;20372;-43
2022/06/21 12:54:44;;;;;;;4.40;3.83;;;27.80;53.00;;;;;;7373169;19;20364;-43
2022/06/21 12:57:41;;;;;;;5.13;3.33;;;27.30;53.30;;;;;;7356259;19;20386;-43
2022/06/21 13:00:23;;;;;;;4.20;3.30;;;27.40;53.40;;;;;;7369957;19;20397;-40
2022/06/21 13:03:32;;;;;;;6.77;4.07;;;27.70;53.70;;;;;;7372128;19;20585;-40
2022/06/21 13:06:31;;;;;;;5.90;4.37;;;27.70;53.40;;;;;;7369056;19;20439;-40
2022/06/21 13:09:24;;;;;;;4.10;3.33;;;28.00;52.80;;;;;;7368263;19;21021;-41
2022/06/21 13:12:08;;;;;;;3.63;3.30;;;28.40;52.90;;;;;;7375318;19;20841;-40
2022/06/21 13:15:04;;;;;;;3.73;3.07;;;28.40;52.20;;;;;;7376394;19;20415;-41
2022/06/21 13:17:56;;;;;;;5.00;2.93;;;28.60;51.50;;;;;;7349937;19;20412;-41
2022/06/21 13:20:37;;;;;;;4.03;3.37;;;28.50;52.00;;;;;;7375078;19;20383;-41
2022/06/21 13:23:19;;;;;;;4.37;3.60;;;29.10;51.00;;;;;;7375801;19;20516;-41
2022/06/21 13:25:56;;;;;;;5.30;4.20;;;29.20;50.70;;;;;;7372211;19;20689;-41
2022/06/21 13:28:48;;;;;;;6.27;3.30;;;29.10;50.60;;;;;;7372977;19;20388;-38
2022/06/21 13:31:25;;;;;;;4.63;3.43;;;29.10;50.90;;;;;;7372403;19;20907;-39
2022/06/21 13:34:02;;;;;;;4.23;3.40;;;29.20;50.70;;;;;;7373358;19;20431;-41
2022/06/21 13:36:42;;;;;;;3.93;3.60;;;29.10;50.80;;;;;;7365101;19;20407;-38
2022/06/21 13:39:37;;;;;;;4.87;4.30;;;28.90;51.50;;;;;;7371967;19;20785;-41
2022/06/21 13:45:01;;;;;;;3.50;3.10;;;29.30;50.30;;;;;;7373303;19;20376;-41
2022/06/21 13:47:35;;;;;;;4.53;4.00;;;29.20;50.50;;;;;;7371826;19;20427;-38
2022/06/21 13:50:15;;;;;;;5.50;4.30;;;28.90;51.00;;;;;;7376301;19;20383;-41
2022/06/21 13:52:55;;;;;;;4.73;3.80;;;28.90;50.90;;;;;;7372401;19;20384;-39
2022/06/21 13:55:36;;;;;;;3.97;3.60;;;28.80;51.50;;;;;;7371987;19;20960;-38
2022/06/21 13:58:17;;;;;;;4.90;3.70;;;28.70;51.60;;;;;;7357212;19;20371;-40
2022/06/21 14:00:52;;;;;;;4.77;3.77;;;28.40;52.70;;;;;;7372165;19;20957;-43